VLG7VV LEBL-LEBB
Flight info
| Callsign | VLG7VV |
|---|---|
| Flight time | 0h 52m |
| Altitude | 27000 |
| Route | GRAUS M601 POSSY/N0448F290 M601 CEGAM |
| Aircraft | A321/M-SDE3FGHIRWY/LB1 |
Departure
| Time | 2026-04-27 12:56 |
|---|---|
| Airport | Josep Tarradellas Barcelona-El Prat Airport (LEBL) |
Arrival
| Time | 2026-04-27 13:48 |
|---|---|
| Airport | Bilbao Airport (LEBB) |
| Time | Latitude | Longitude | Altitude | Speed | Heading |
|---|---|---|---|---|---|
| 2026-04-27 12:31 | 41.30369 | 2.08321 | 3 ft | 0 kts | 304° |
| 2026-04-27 12:36 | 41.30368 | 2.08321 | 3 ft | 0 kts | 304° |
| 2026-04-27 12:39 | 41.30368 | 2.08322 | 3 ft | 0 kts | 304° |
| 2026-04-27 12:46 | 41.30361 | 2.08337 | 4 ft | 4 kts | 302° |
| 2026-04-27 12:46 | 41.30347 | 2.08368 | 4 ft | 4 kts | 300° |
| 2026-04-27 12:47 | 41.30333 | 2.08399 | 3 ft | 4 kts | 303° |
| 2026-04-27 12:47 | 41.30316 | 2.08426 | 5 ft | 4 kts | 329° |
| 2026-04-27 12:47 | 41.30295 | 2.08438 | 4 ft | 4 kts | 344° |
| 2026-04-27 12:47 | 41.30269 | 2.08444 | 3 ft | 4 kts | 2° |
| 2026-04-27 12:48 | 41.30243 | 2.08438 | 5 ft | 4 kts | 29° |
| 2026-04-27 12:48 | 41.30224 | 2.08416 | 3 ft | 3 kts | 64° |
| 2026-04-27 12:48 | 41.30223 | 2.08412 | 3 ft | 1 kts | 66° |
| 2026-04-27 12:51 | 41.30226 | 2.08423 | 4 ft | 5 kts | 66° |
| 2026-04-27 12:51 | 41.30256 | 2.08510 | 3 ft | 13 kts | 65° |
| 2026-04-27 12:51 | 41.30298 | 2.08635 | 3 ft | 17 kts | 65° |
| 2026-04-27 12:52 | 41.30350 | 2.08786 | 3 ft | 19 kts | 65° |
| 2026-04-27 12:52 | 41.30414 | 2.08963 | 3 ft | 24 kts | 59° |
| 2026-04-27 12:52 | 41.30488 | 2.09168 | 5 ft | 24 kts | 66° |
| 2026-04-27 12:52 | 41.30555 | 2.09362 | 7 ft | 23 kts | 65° |
| 2026-04-27 12:53 | 41.30695 | 2.09772 | 3 ft | 25 kts | 65° |
| 2026-04-27 12:53 | 41.30765 | 2.09980 | 3 ft | 25 kts | 66° |
| 2026-04-27 12:53 | 41.30834 | 2.10175 | 2 ft | 17 kts | 64° |
| 2026-04-27 12:54 | 41.30779 | 2.10274 | 2 ft | 15 kts | 155° |
| 2026-04-27 12:54 | 41.30709 | 2.10316 | 2 ft | 0 kts | 155° |
| 2026-04-27 12:54 | 41.30707 | 2.10318 | 2 ft | 2 kts | 155° |
| 2026-04-27 12:55 | 41.30658 | 2.10348 | 2 ft | 12 kts | 155° |
| 2026-04-27 12:55 | 41.30575 | 2.10359 | 2 ft | 13 kts | 218° |
| 2026-04-27 12:55 | 41.30532 | 2.10251 | 1 ft | 14 kts | 245° |
| 2026-04-27 12:55 | 41.30446 | 2.10003 | 3 ft | 61 kts | 245° |
| 2026-04-27 12:56 | 41.30173 | 2.09208 | 4 ft | 125 kts | 245° |
| 2026-04-27 12:56 | 41.29739 | 2.07943 | 18 ft | 173 kts | 245° |
| 2026-04-27 12:56 | 41.29249 | 2.06500 | 670 ft | 170 kts | 244° |
| 2026-04-27 12:56 | 41.28754 | 2.05057 | 1323 ft | 174 kts | 244° |
| 2026-04-27 12:57 | 41.28222 | 2.03520 | 1720 ft | 191 kts | 244° |
| 2026-04-27 12:57 | 41.27632 | 2.01818 | 1966 ft | 214 kts | 244° |
| 2026-04-27 12:57 | 41.26978 | 1.99926 | 2156 ft | 237 kts | 244° |
| 2026-04-27 12:57 | 41.26256 | 1.97826 | 2455 ft | 260 kts | 244° |
| 2026-04-27 12:58 | 41.25494 | 1.95611 | 3050 ft | 267 kts | 245° |
| 2026-04-27 12:58 | 41.24718 | 1.93358 | 3777 ft | 269 kts | 245° |
| 2026-04-27 12:58 | 41.23937 | 1.91088 | 4506 ft | 272 kts | 245° |
| 2026-04-27 12:58 | 41.23363 | 1.88693 | 5216 ft | 275 kts | 265° |
| 2026-04-27 12:59 | 41.23606 | 1.86174 | 5882 ft | 279 kts | 292° |
| 2026-04-27 12:59 | 41.24615 | 1.83973 | 6596 ft | 280 kts | 307° |
| 2026-04-27 12:59 | 41.25773 | 1.81874 | 7276 ft | 283 kts | 307° |
| 2026-04-27 12:59 | 41.26943 | 1.79759 | 7968 ft | 285 kts | 307° |
| 2026-04-27 13:00 | 41.28120 | 1.77628 | 8663 ft | 287 kts | 306° |
| 2026-04-27 13:00 | 41.29299 | 1.75485 | 9356 ft | 289 kts | 306° |
| 2026-04-27 13:00 | 41.30489 | 1.73321 | 10053 ft | 291 kts | 306° |
| 2026-04-27 13:00 | 41.31185 | 1.72052 | 10386 ft | 295 kts | 306° |
| 2026-04-27 13:01 | 41.32439 | 1.69765 | 10532 ft | 316 kts | 306° |
| 2026-04-27 13:01 | 41.33758 | 1.67349 | 10647 ft | 337 kts | 306° |
| 2026-04-27 13:01 | 41.35189 | 1.64721 | 10648 ft | 357 kts | 306° |
| 2026-04-27 13:01 | 41.36659 | 1.62015 | 10963 ft | 372 kts | 306° |
| 2026-04-27 13:02 | 41.38185 | 1.59208 | 11442 ft | 378 kts | 306° |
| 2026-04-27 13:02 | 41.39732 | 1.56358 | 12036 ft | 381 kts | 306° |
| 2026-04-27 13:02 | 41.41293 | 1.53481 | 12606 ft | 385 kts | 306° |
| 2026-04-27 13:02 | 41.42865 | 1.50588 | 13198 ft | 388 kts | 305° |
| 2026-04-27 13:03 | 41.44453 | 1.47667 | 13843 ft | 390 kts | 305° |
| 2026-04-27 13:03 | 41.46048 | 1.44727 | 14401 ft | 392 kts | 305° |
| 2026-04-27 13:03 | 41.47646 | 1.41766 | 14912 ft | 396 kts | 304° |
| 2026-04-27 13:03 | 41.49228 | 1.38738 | 15426 ft | 399 kts | 300° |
| 2026-04-27 13:04 | 41.50461 | 1.35429 | 15939 ft | 401 kts | 290° |
| 2026-04-27 13:04 | 41.51227 | 1.31842 | 16446 ft | 404 kts | 279° |
| 2026-04-27 13:04 | 41.51544 | 1.28099 | 16931 ft | 408 kts | 274° |
| 2026-04-27 13:04 | 41.51774 | 1.24324 | 17468 ft | 410 kts | 274° |
| 2026-04-27 13:05 | 41.52006 | 1.20510 | 17954 ft | 413 kts | 274° |
| 2026-04-27 13:05 | 41.52239 | 1.16675 | 18455 ft | 416 kts | 274° |
| 2026-04-27 13:05 | 41.52475 | 1.12810 | 18849 ft | 419 kts | 274° |
| 2026-04-27 13:05 | 41.52713 | 1.08921 | 19268 ft | 421 kts | 274° |
| 2026-04-27 13:06 | 41.52950 | 1.05021 | 19679 ft | 423 kts | 274° |
| 2026-04-27 13:06 | 41.53185 | 1.01096 | 20138 ft | 425 kts | 274° |
| 2026-04-27 13:06 | 41.53417 | 0.97174 | 20615 ft | 425 kts | 274° |
| 2026-04-27 13:06 | 41.53650 | 0.93226 | 21007 ft | 428 kts | 274° |
| 2026-04-27 13:07 | 41.53886 | 0.89253 | 21407 ft | 430 kts | 274° |
| 2026-04-27 13:07 | 41.54118 | 0.85266 | 21777 ft | 433 kts | 274° |
| 2026-04-27 13:07 | 41.54349 | 0.81249 | 22183 ft | 435 kts | 274° |
| 2026-04-27 13:07 | 41.54580 | 0.77213 | 22583 ft | 436 kts | 275° |
| 2026-04-27 13:08 | 41.54997 | 0.73205 | 22950 ft | 439 kts | 283° |
| 2026-04-27 13:08 | 41.56012 | 0.69352 | 23351 ft | 441 kts | 295° |
| 2026-04-27 13:08 | 41.57603 | 0.65825 | 23654 ft | 446 kts | 307° |
| 2026-04-27 13:08 | 41.59726 | 0.62806 | 23930 ft | 449 kts | 319° |
| 2026-04-27 13:09 | 41.62265 | 0.60441 | 24217 ft | 453 kts | 330° |
| 2026-04-27 13:09 | 41.65147 | 0.58567 | 24516 ft | 455 kts | 334° |
| 2026-04-27 13:09 | 41.68008 | 0.56754 | 24809 ft | 457 kts | 334° |
| 2026-04-27 13:09 | 41.70890 | 0.54923 | 25112 ft | 459 kts | 334° |
| 2026-04-27 13:10 | 41.73777 | 0.53083 | 25401 ft | 461 kts | 333° |
| 2026-04-27 13:10 | 41.76680 | 0.51229 | 25697 ft | 463 kts | 333° |
| 2026-04-27 13:10 | 41.79586 | 0.49372 | 25992 ft | 465 kts | 333° |
| 2026-04-27 13:10 | 41.82517 | 0.47501 | 26277 ft | 467 kts | 333° |
| 2026-04-27 13:11 | 41.85462 | 0.45623 | 26565 ft | 469 kts | 333° |
| 2026-04-27 13:11 | 41.88398 | 0.43747 | 26954 ft | 468 kts | 333° |
| 2026-04-27 13:11 | 41.91301 | 0.41888 | 27080 ft | 466 kts | 333° |
| 2026-04-27 13:11 | 41.94129 | 0.39845 | 27108 ft | 458 kts | 326° |
| 2026-04-27 13:12 | 41.96665 | 0.37219 | 27104 ft | 454 kts | 316° |
| 2026-04-27 13:12 | 41.98781 | 0.34156 | 27102 ft | 452 kts | 307° |
| 2026-04-27 13:12 | 42.00542 | 0.30589 | 27101 ft | 451 kts | 297° |
| 2026-04-27 13:12 | 42.01948 | 0.26888 | 27099 ft | 452 kts | 296° |
| 2026-04-27 13:13 | 42.03365 | 0.23113 | 27103 ft | 452 kts | 296° |
| 2026-04-27 13:13 | 42.04795 | 0.19297 | 27105 ft | 452 kts | 296° |
| 2026-04-27 13:13 | 42.06192 | 0.15568 | 27102 ft | 452 kts | 296° |
| 2026-04-27 13:13 | 42.07620 | 0.11750 | 27106 ft | 452 kts | 296° |
| 2026-04-27 13:14 | 42.09016 | 0.08020 | 27104 ft | 452 kts | 296° |
| 2026-04-27 13:14 | 42.10426 | 0.04236 | 27106 ft | 451 kts | 296° |
| 2026-04-27 13:14 | 42.11825 | 0.00461 | 27110 ft | 451 kts | 296° |
| 2026-04-27 13:14 | 42.13228 | -0.03327 | 27124 ft | 451 kts | 295° |
| 2026-04-27 13:15 | 42.14632 | -0.07115 | 27126 ft | 451 kts | 295° |
| 2026-04-27 13:15 | 42.16033 | -0.10890 | 27129 ft | 451 kts | 295° |
| 2026-04-27 13:15 | 42.17436 | -0.14678 | 27129 ft | 451 kts | 295° |
| 2026-04-27 13:15 | 42.18831 | -0.18456 | 27108 ft | 451 kts | 295° |
| 2026-04-27 13:16 | 42.20227 | -0.22250 | 27115 ft | 451 kts | 295° |
| 2026-04-27 13:16 | 42.21622 | -0.26046 | 27112 ft | 451 kts | 295° |
| 2026-04-27 13:16 | 42.23011 | -0.29830 | 27107 ft | 451 kts | 295° |
| 2026-04-27 13:16 | 42.24406 | -0.33626 | 27106 ft | 451 kts | 295° |
| 2026-04-27 13:17 | 42.25802 | -0.37425 | 27109 ft | 451 kts | 295° |
| 2026-04-27 13:17 | 42.27199 | -0.41225 | 27109 ft | 451 kts | 295° |
| 2026-04-27 13:17 | 42.28589 | -0.45013 | 27114 ft | 451 kts | 295° |
| 2026-04-27 13:17 | 42.29983 | -0.48816 | 27111 ft | 451 kts | 295° |
| 2026-04-27 13:18 | 42.31368 | -0.52610 | 27107 ft | 451 kts | 295° |
| 2026-04-27 13:18 | 42.32756 | -0.56419 | 27108 ft | 451 kts | 295° |
| 2026-04-27 13:18 | 42.34143 | -0.60230 | 27107 ft | 451 kts | 295° |
| 2026-04-27 13:18 | 42.35524 | -0.64029 | 27101 ft | 451 kts | 295° |
| 2026-04-27 13:19 | 42.36908 | -0.67842 | 27110 ft | 451 kts | 295° |
| 2026-04-27 13:19 | 42.38286 | -0.71644 | 27109 ft | 451 kts | 295° |
| 2026-04-27 13:19 | 42.39669 | -0.75460 | 27110 ft | 451 kts | 295° |
| 2026-04-27 13:19 | 42.41051 | -0.79276 | 27111 ft | 451 kts | 295° |
| 2026-04-27 13:20 | 42.42427 | -0.83082 | 27110 ft | 451 kts | 295° |
| 2026-04-27 13:20 | 42.43354 | -0.85659 | 27108 ft | 451 kts | 295° |
| 2026-04-27 13:20 | 42.44728 | -0.89482 | 27112 ft | 451 kts | 295° |
| 2026-04-27 13:20 | 42.46084 | -0.93254 | 27104 ft | 451 kts | 295° |
| 2026-04-27 13:21 | 42.47470 | -0.97117 | 27103 ft | 451 kts | 295° |
| 2026-04-27 13:21 | 42.48053 | -0.98744 | 27103 ft | 451 kts | 295° |
| 2026-04-27 13:25 | 42.48790 | -1.00799 | 26847 ft | 454 kts | 294° |
| 2026-04-27 13:25 | 42.50157 | -1.04627 | 26890 ft | 450 kts | 294° |
| 2026-04-27 13:25 | 42.51524 | -1.08456 | 27082 ft | 451 kts | 294° |
| 2026-04-27 13:26 | 42.52893 | -1.12290 | 27106 ft | 453 kts | 294° |
| 2026-04-27 13:26 | 42.54272 | -1.16142 | 27122 ft | 454 kts | 294° |
| 2026-04-27 13:26 | 42.55651 | -1.19995 | 27122 ft | 453 kts | 294° |
| 2026-04-27 13:26 | 42.57021 | -1.23835 | 27122 ft | 453 kts | 294° |
| 2026-04-27 13:27 | 42.58393 | -1.27685 | 27117 ft | 452 kts | 294° |
| 2026-04-27 13:27 | 42.59761 | -1.31534 | 27116 ft | 452 kts | 294° |
| 2026-04-27 13:27 | 42.61121 | -1.35370 | 27127 ft | 452 kts | 294° |
| 2026-04-27 13:27 | 42.62481 | -1.39220 | 27121 ft | 452 kts | 294° |
| 2026-04-27 13:28 | 42.63820 | -1.43019 | 27119 ft | 451 kts | 294° |
| 2026-04-27 13:28 | 42.65196 | -1.46919 | 27117 ft | 451 kts | 294° |
| 2026-04-27 13:28 | 42.66549 | -1.50751 | 27113 ft | 451 kts | 294° |
| 2026-04-27 13:28 | 42.67888 | -1.54546 | 27119 ft | 451 kts | 294° |
| 2026-04-27 13:29 | 42.69249 | -1.58416 | 27118 ft | 451 kts | 294° |
| 2026-04-27 13:29 | 42.70581 | -1.62216 | 27115 ft | 451 kts | 294° |
| 2026-04-27 13:29 | 42.71944 | -1.66113 | 27114 ft | 451 kts | 294° |
| 2026-04-27 13:29 | 42.73315 | -1.69937 | 27108 ft | 451 kts | 297° |
| 2026-04-27 13:30 | 42.74959 | -1.73598 | 26755 ft | 454 kts | 301° |
| 2026-04-27 13:30 | 42.76642 | -1.77170 | 26265 ft | 454 kts | 301° |
| 2026-04-27 13:30 | 42.78375 | -1.80829 | 25769 ft | 455 kts | 301° |
| 2026-04-27 13:30 | 42.80072 | -1.84414 | 25297 ft | 457 kts | 301° |
| 2026-04-27 13:31 | 42.81816 | -1.88111 | 24828 ft | 458 kts | 301° |
| 2026-04-27 13:31 | 42.83508 | -1.91716 | 24372 ft | 459 kts | 300° |
| 2026-04-27 13:31 | 42.85228 | -1.95397 | 23848 ft | 460 kts | 300° |
| 2026-04-27 13:31 | 42.86943 | -1.99078 | 23251 ft | 462 kts | 300° |
| 2026-04-27 13:32 | 42.88667 | -2.02779 | 22633 ft | 461 kts | 300° |
| 2026-04-27 13:32 | 42.90384 | -2.06460 | 22033 ft | 458 kts | 300° |
| 2026-04-27 13:32 | 42.92084 | -2.10101 | 21437 ft | 454 kts | 300° |
| 2026-04-27 13:32 | 42.93774 | -2.13725 | 20857 ft | 450 kts | 300° |
| 2026-04-27 13:33 | 42.95450 | -2.17321 | 20286 ft | 447 kts | 300° |
| 2026-04-27 13:33 | 42.97106 | -2.20877 | 19730 ft | 443 kts | 300° |
| 2026-04-27 13:33 | 42.98673 | -2.24474 | 19184 ft | 438 kts | 295° |
| 2026-04-27 13:33 | 42.99970 | -2.28205 | 18648 ft | 434 kts | 293° |
| 2026-04-27 13:34 | 43.01256 | -2.31928 | 18086 ft | 431 kts | 293° |
| 2026-04-27 13:34 | 43.02536 | -2.35620 | 17475 ft | 427 kts | 293° |
| 2026-04-27 13:34 | 43.03801 | -2.39267 | 16871 ft | 424 kts | 294° |
| 2026-04-27 13:34 | 43.05060 | -2.42898 | 16303 ft | 420 kts | 294° |
| 2026-04-27 13:35 | 43.06304 | -2.46490 | 15713 ft | 417 kts | 293° |
| 2026-04-27 13:35 | 43.07540 | -2.50067 | 15153 ft | 414 kts | 293° |
| 2026-04-27 13:35 | 43.08765 | -2.53619 | 14606 ft | 411 kts | 293° |
| 2026-04-27 13:35 | 43.09978 | -2.57146 | 14050 ft | 408 kts | 293° |
| 2026-04-27 13:36 | 43.11178 | -2.60635 | 13472 ft | 404 kts | 294° |
| 2026-04-27 13:36 | 43.12371 | -2.64109 | 12862 ft | 401 kts | 293° |
| 2026-04-27 13:36 | 43.13551 | -2.67549 | 12274 ft | 398 kts | 293° |
| 2026-04-27 13:36 | 43.14720 | -2.70958 | 11700 ft | 394 kts | 293° |
| 2026-04-27 13:37 | 43.15878 | -2.74339 | 11134 ft | 390 kts | 293° |
| 2026-04-27 13:37 | 43.17020 | -2.77686 | 10579 ft | 385 kts | 293° |
| 2026-04-27 13:37 | 43.18143 | -2.80977 | 10028 ft | 379 kts | 293° |
| 2026-04-27 13:37 | 43.19251 | -2.84231 | 9436 ft | 374 kts | 293° |
| 2026-04-27 13:38 | 43.20342 | -2.87439 | 8947 ft | 366 kts | 293° |
| 2026-04-27 13:38 | 43.21391 | -2.90527 | 8711 ft | 348 kts | 293° |
| 2026-04-27 13:38 | 43.22370 | -2.93400 | 8475 ft | 317 kts | 293° |
| 2026-04-27 13:38 | 43.23267 | -2.96028 | 8243 ft | 291 kts | 292° |
| 2026-04-27 13:39 | 43.24106 | -2.98495 | 8024 ft | 285 kts | 292° |
| 2026-04-27 13:39 | 43.24935 | -3.00941 | 7804 ft | 281 kts | 292° |
| 2026-04-27 13:39 | 43.25754 | -3.03371 | 7583 ft | 280 kts | 292° |
| 2026-04-27 13:39 | 43.26568 | -3.05786 | 7374 ft | 279 kts | 292° |
| 2026-04-27 13:40 | 43.27378 | -3.08195 | 7142 ft | 277 kts | 292° |
| 2026-04-27 13:40 | 43.28184 | -3.10597 | 6944 ft | 276 kts | 292° |
| 2026-04-27 13:40 | 43.28985 | -3.12982 | 6719 ft | 275 kts | 292° |
| 2026-04-27 13:40 | 43.29420 | -3.14273 | 6616 ft | 275 kts | 293° |
| 2026-04-27 13:41 | 43.30220 | -3.16658 | 6418 ft | 275 kts | 293° |
| 2026-04-27 13:41 | 43.31022 | -3.19042 | 6214 ft | 274 kts | 293° |
| 2026-04-27 13:41 | 43.31821 | -3.21419 | 6009 ft | 274 kts | 293° |
| 2026-04-27 13:41 | 43.32680 | -3.23746 | 5804 ft | 274 kts | 304° |
| 2026-04-27 13:42 | 43.34038 | -3.25559 | 5602 ft | 275 kts | 327° |
| 2026-04-27 13:42 | 43.35819 | -3.26489 | 5407 ft | 277 kts | 351° |
| 2026-04-27 13:42 | 43.37712 | -3.26376 | 5231 ft | 271 kts | 15° |
| 2026-04-27 13:42 | 43.39460 | -3.25534 | 5054 ft | 262 kts | 26° |
| 2026-04-27 13:43 | 43.40749 | -3.23925 | 4982 ft | 248 kts | 64° |
| 2026-04-27 13:43 | 43.41047 | -3.21695 | 4840 ft | 234 kts | 101° |
| 2026-04-27 13:43 | 43.40534 | -3.19620 | 4564 ft | 227 kts | 117° |
| 2026-04-27 13:43 | 43.39830 | -3.17690 | 4262 ft | 225 kts | 118° |
| 2026-04-27 13:44 | 43.39124 | -3.15781 | 3957 ft | 223 kts | 117° |
| 2026-04-27 13:44 | 43.38433 | -3.13885 | 3652 ft | 222 kts | 117° |
| 2026-04-27 13:44 | 43.37746 | -3.11996 | 3354 ft | 220 kts | 117° |
| 2026-04-27 13:44 | 43.37074 | -3.10147 | 3076 ft | 211 kts | 117° |
| 2026-04-27 13:45 | 43.36434 | -3.08387 | 2772 ft | 201 kts | 116° |
| 2026-04-27 13:45 | 43.35833 | -3.06736 | 2514 ft | 183 kts | 116° |
| 2026-04-27 13:45 | 43.35299 | -3.05270 | 2264 ft | 162 kts | 116° |
| 2026-04-27 13:45 | 43.34805 | -3.03916 | 2037 ft | 156 kts | 115° |
| 2026-04-27 13:46 | 43.34326 | -3.02600 | 1817 ft | 153 kts | 115° |
| 2026-04-27 13:46 | 43.33851 | -3.01301 | 1613 ft | 151 kts | 116° |
| 2026-04-27 13:46 | 43.33382 | -3.00015 | 1410 ft | 149 kts | 113° |
| 2026-04-27 13:46 | 43.32921 | -2.98753 | 1193 ft | 146 kts | 115° |
| 2026-04-27 13:47 | 43.32467 | -2.97507 | 987 ft | 146 kts | 115° |
| 2026-04-27 13:47 | 43.32013 | -2.96259 | 808 ft | 146 kts | 114° |
| 2026-04-27 13:47 | 43.31556 | -2.95006 | 628 ft | 147 kts | 115° |
| 2026-04-27 13:47 | 43.31097 | -2.93755 | 363 ft | 146 kts | 115° |
| 2026-04-27 13:48 | 43.30638 | -2.92504 | 163 ft | 147 kts | 115° |
| 2026-04-27 13:48 | 43.30220 | -2.91364 | 124 ft | 112 kts | 116° |
| 2026-04-27 13:48 | 43.29951 | -2.90623 | 125 ft | 63 kts | 117° |
| 2026-04-27 13:48 | 43.29797 | -2.90207 | 125 ft | 44 kts | 116° |
| 2026-04-27 13:49 | 43.29666 | -2.89837 | 124 ft | 36 kts | 110° |
| 2026-04-27 13:49 | 43.29671 | -2.89652 | 129 ft | 14 kts | 56° |
| 2026-04-27 13:49 | 43.29742 | -2.89582 | 132 ft | 13 kts | 340° |
| 2026-04-27 13:49 | 43.29795 | -2.89691 | 132 ft | 15 kts | 297° |
| 2026-04-27 13:50 | 43.29848 | -2.89837 | 132 ft | 19 kts | 297° |
| 2026-04-27 13:50 | 43.29909 | -2.90004 | 132 ft | 21 kts | 296° |
| 2026-04-27 13:50 | 43.29977 | -2.90188 | 132 ft | 22 kts | 296° |
| 2026-04-27 13:50 | 43.30047 | -2.90380 | 132 ft | 23 kts | 296° |
| 2026-04-27 13:51 | 43.30113 | -2.90555 | 132 ft | 14 kts | 305° |
| 2026-04-27 13:51 | 43.30197 | -2.90542 | 132 ft | 14 kts | 30° |
| 2026-04-27 13:51 | 43.30285 | -2.90557 | 132 ft | 14 kts | 327° |
| 2026-04-27 13:51 | 43.30354 | -2.90647 | 132 ft | 14 kts | 298° |
| 2026-04-27 13:52 | 43.30402 | -2.90711 | 132 ft | 8 kts | 6° |
| 2026-04-27 13:52 | 43.30442 | -2.90687 | 132 ft | 5 kts | 25° |
| 2026-04-27 13:52 | 43.30445 | -2.90685 | 132 ft | 0 kts | 26° |